createdAt,value
2022-09-25T00:00:38.665Z,97.19
2022-09-25T00:01:38.808Z,97.19
2022-09-25T00:02:38.701Z,97.08
2022-09-25T00:03:38.648Z,97.08
2022-09-25T00:04:39.470Z,97.08
2022-09-25T00:05:38.637Z,96.98
2022-09-25T00:06:39.528Z,96.98
2022-09-25T00:07:38.595Z,96.98
2022-09-25T00:08:38.576Z,96.98
2022-09-25T00:09:38.875Z,96.98
2022-09-25T00:10:38.915Z,96.98
2022-09-25T00:11:38.964Z,96.98
2022-09-25T00:12:38.525Z,96.98
2022-09-25T00:13:38.525Z,96.98
2022-09-25T00:14:38.485Z,96.98
2022-09-25T00:15:38.496Z,97.08
2022-09-25T00:16:39.407Z,97.08
2022-09-25T00:17:38.474Z,96.98
2022-09-25T00:18:38.524Z,96.68
2022-09-25T00:19:38.455Z,96.37
2022-09-25T00:20:38.417Z,96.27
2022-09-25T00:21:38.422Z,96.37
2022-09-25T00:22:38.537Z,96.06
2022-09-25T00:23:38.407Z,95.96
2022-09-25T00:24:38.385Z,95.35
2022-09-25T00:25:39.245Z,94.43
2022-09-25T00:26:39.157Z,93.00
2022-09-25T00:27:38.389Z,93.31
2022-09-25T00:28:38.345Z,93.62
2022-09-25T00:29:38.335Z,94.02
2022-09-25T00:30:38.343Z,92.19
2022-09-25T00:31:38.313Z,92.69
2022-09-25T00:32:38.628Z,93.51
2022-09-25T00:33:38.304Z,94.12
2022-09-25T00:34:38.275Z,94.74
2022-09-25T00:35:38.265Z,95.10
2022-09-25T00:36:38.236Z,95.10
2022-09-25T00:37:38.234Z,95.20
2022-09-25T00:38:39.017Z,95.31
2022-09-25T00:39:38.225Z,95.45
2022-09-25T00:40:38.238Z,95.56
2022-09-25T00:41:38.196Z,95.65
2022-09-25T00:42:38.415Z,95.56
2022-09-25T00:43:38.176Z,94.84
2022-09-25T00:44:38.246Z,94.84
2022-09-25T00:45:38.152Z,95.04
2022-09-25T00:46:38.200Z,95.04
2022-09-25T00:47:38.935Z,95.15
2022-09-25T00:48:38.155Z,95.04
2022-09-25T00:49:38.160Z,94.94
2022-09-25T00:50:38.187Z,94.94
2022-09-25T00:51:38.075Z,94.94
2022-09-25T00:52:38.065Z,94.84
2022-09-25T00:53:38.072Z,94.74
2022-09-25T00:54:38.038Z,94.94
2022-09-25T00:55:38.148Z,95.20
2022-09-25T00:56:38.005Z,95.20
2022-09-25T00:57:38.015Z,95.31
2022-09-25T00:58:37.986Z,95.45
2022-09-25T00:59:37.996Z,95.45
2022-09-25T01:00:38.696Z,95.56
2022-09-25T01:01:38.011Z,95.35
2022-09-25T01:02:38.027Z,95.04
2022-09-25T01:03:37.955Z,94.64
2022-09-25T01:04:37.923Z,94.33
2022-09-25T01:05:37.928Z,94.84
2022-09-25T01:06:37.914Z,95.35
2022-09-25T01:07:38.803Z,95.76
2022-09-25T01:08:37.904Z,95.86
2022-09-25T01:09:37.872Z,95.86
2022-09-25T01:10:37.862Z,95.86
2022-09-25T01:11:37.853Z,95.86
2022-09-25T01:12:37.825Z,95.86
2022-09-25T01:13:37.842Z,95.86
2022-09-25T01:14:37.813Z,95.76
2022-09-25T01:15:37.804Z,95.76
2022-09-25T01:16:37.832Z,95.65
2022-09-25T01:17:37.796Z,95.76
2022-09-25T01:18:37.758Z,95.86
2022-09-25T01:19:37.765Z,95.96
2022-09-25T01:20:37.735Z,95.96
2022-09-25T01:21:37.767Z,95.96
2022-09-25T01:22:37.715Z,95.86
2022-09-25T01:23:37.744Z,95.96
2022-09-25T01:24:38.495Z,96.06
2022-09-25T01:25:37.685Z,95.96
2022-09-25T01:26:37.665Z,95.96
2022-09-25T01:27:37.675Z,96.06
2022-09-25T01:28:37.675Z,96.17
2022-09-25T01:29:37.642Z,96.27
2022-09-25T01:30:37.649Z,96.37
2022-09-25T01:31:37.615Z,96.37
2022-09-25T01:32:37.594Z,96.47
2022-09-25T01:33:37.624Z,96.47
2022-09-25T01:34:37.564Z,96.37
2022-09-25T01:35:37.645Z,96.37
2022-09-25T01:36:37.544Z,96.37
2022-09-25T01:37:37.545Z,96.37
2022-09-25T01:38:37.526Z,96.37
2022-09-25T01:39:37.536Z,96.47
2022-09-25T01:40:37.543Z,96.47
2022-09-25T01:41:37.504Z,96.47
2022-09-25T01:42:37.485Z,96.37
2022-09-25T01:43:37.484Z,96.37
2022-09-25T01:44:37.475Z,96.37
2022-09-25T01:45:37.499Z,96.47
2022-09-25T01:46:37.445Z,96.58
2022-09-25T01:47:37.425Z,96.58
2022-09-25T01:48:38.194Z,96.68
2022-09-25T01:49:37.424Z,96.68
2022-09-25T01:50:37.547Z,96.78
2022-09-25T01:51:37.383Z,96.78
2022-09-25T01:52:37.383Z,96.88
2022-09-25T01:53:37.459Z,96.98
2022-09-25T01:54:37.363Z,97.08
2022-09-25T01:55:37.352Z,97.13
2022-09-25T01:56:37.335Z,97.24
2022-09-25T01:57:37.314Z,97.19
2022-09-25T01:58:37.324Z,97.29
2022-09-25T01:59:37.294Z,97.29
2022-09-25T02:00:37.309Z,97.39
2022-09-25T02:01:37.288Z,97.44
2022-09-25T02:02:37.322Z,97.44
2022-09-25T02:03:37.265Z,97.54
2022-09-25T02:04:37.267Z,97.54
2022-09-25T02:05:37.225Z,97.54
2022-09-25T02:06:37.295Z,97.64
2022-09-25T02:07:37.202Z,97.64
2022-09-25T02:08:37.216Z,97.64
2022-09-25T02:09:37.184Z,97.64
2022-09-25T02:10:37.185Z,97.64
2022-09-25T02:11:37.155Z,97.64
2022-09-25T02:12:37.163Z,97.64
2022-09-25T02:13:37.145Z,97.64
2022-09-25T02:14:37.144Z,97.64
2022-09-25T02:15:37.115Z,97.74
2022-09-25T02:16:37.142Z,97.74
2022-09-25T02:17:37.087Z,97.74
2022-09-25T02:18:37.092Z,97.74
2022-09-25T02:19:37.064Z,97.74
2022-09-25T02:20:37.065Z,97.74
2022-09-25T02:21:37.043Z,97.74
2022-09-25T02:22:37.042Z,97.74
2022-09-25T02:23:37.033Z,97.85
2022-09-25T02:24:37.043Z,97.85
2022-09-25T02:25:36.995Z,97.85
2022-09-25T02:26:36.995Z,97.74
2022-09-25T02:27:36.963Z,97.74
2022-09-25T02:28:36.967Z,97.74
2022-09-25T02:29:37.046Z,97.74
2022-09-25T02:30:36.988Z,97.85
2022-09-25T02:31:36.915Z,97.74
2022-09-25T02:32:36.923Z,97.85
2022-09-25T02:33:36.913Z,97.85
2022-09-25T02:34:36.903Z,97.85
2022-09-25T02:35:36.875Z,97.85
2022-09-25T02:36:36.885Z,97.85
2022-09-25T02:37:36.843Z,97.85
2022-09-25T02:38:36.843Z,97.85
2022-09-25T02:39:36.822Z,97.74
2022-09-25T02:40:36.869Z,97.74
2022-09-25T02:41:36.795Z,97.74
2022-09-25T02:42:36.805Z,97.74
2022-09-25T02:43:36.794Z,97.64
2022-09-25T02:44:36.776Z,97.54
2022-09-25T02:45:36.795Z,97.54
2022-09-25T02:46:36.762Z,97.64
2022-09-25T02:47:36.735Z,97.54
2022-09-25T02:48:36.733Z,97.54
2022-09-25T02:49:37.453Z,97.54
2022-09-25T02:50:36.704Z,97.54
2022-09-25T02:51:36.691Z,97.54
2022-09-25T02:52:36.706Z,97.54
2022-09-25T02:53:36.675Z,97.54
2022-09-25T02:54:36.665Z,97.54
2022-09-25T02:55:36.634Z,97.54
2022-09-25T02:56:36.640Z,97.54
2022-09-25T02:57:36.694Z,97.54
2022-09-25T02:58:36.622Z,97.54
2022-09-25T02:59:36.593Z,97.54
2022-09-25T03:00:36.593Z,97.54
2022-09-25T03:01:36.773Z,97.54
2022-09-25T03:02:36.622Z,97.54
2022-09-25T03:03:36.574Z,97.44
2022-09-25T03:04:36.549Z,97.44
2022-09-25T03:05:36.523Z,97.33
2022-09-25T03:06:36.522Z,97.24
2022-09-25T03:07:36.503Z,97.13
2022-09-25T03:08:36.504Z,97.03
2022-09-25T03:09:37.103Z,97.03
2022-09-25T03:10:36.493Z,96.92
2022-09-25T03:11:36.455Z,96.83
2022-09-25T03:12:36.453Z,96.83
2022-09-25T03:13:36.446Z,96.83
2022-09-25T03:14:36.441Z,96.72
2022-09-25T03:15:36.405Z,96.72
2022-09-25T03:16:36.496Z,96.72
2022-09-25T03:17:36.383Z,96.72
2022-09-25T03:18:36.393Z,96.62
2022-09-25T03:19:36.366Z,96.62
2022-09-25T03:20:36.605Z,96.62
2022-09-25T03:21:36.335Z,96.62
2022-09-25T03:22:36.334Z,96.62
2022-09-25T03:23:36.333Z,96.62
2022-09-25T03:24:36.324Z,96.62
2022-09-25T03:25:36.293Z,96.72
2022-09-25T03:26:36.292Z,96.72
2022-09-25T03:27:36.272Z,96.72
2022-09-25T03:28:36.302Z,96.72
2022-09-25T03:29:36.254Z,96.72
2022-09-25T03:30:37.135Z,96.83
2022-09-25T03:31:36.243Z,96.83
2022-09-25T03:32:36.226Z,96.83
2022-09-25T03:33:36.222Z,96.83
2022-09-25T03:34:36.203Z,96.83
2022-09-25T03:35:36.182Z,96.92
2022-09-25T03:36:36.282Z,96.92
2022-09-25T03:37:36.152Z,97.03
2022-09-25T03:38:36.154Z,97.03
2022-09-25T03:39:36.135Z,97.13
2022-09-25T03:40:36.229Z,97.13
2022-09-25T03:41:36.122Z,97.13
2022-09-25T03:42:36.147Z,96.62
2022-09-25T03:43:36.255Z,96.15
2022-09-25T03:44:36.093Z,96.21
2022-09-25T03:45:36.065Z,96.31
2022-09-25T03:46:36.126Z,96.42
2022-09-25T03:47:36.043Z,96.51
2022-09-25T03:48:36.051Z,96.62
2022-09-25T03:49:36.524Z,96.62
2022-09-25T03:50:36.747Z,96.62
2022-09-25T03:51:36.889Z,96.72
2022-09-25T03:52:36.013Z,96.83
2022-09-25T03:53:35.973Z,96.92
2022-09-25T03:54:35.972Z,96.83
2022-09-25T03:55:35.954Z,96.72
2022-09-25T03:56:35.965Z,96.83
2022-09-25T03:57:35.923Z,96.83
2022-09-25T03:58:36.091Z,96.83
2022-09-25T03:59:35.897Z,96.83
2022-09-25T04:00:35.907Z,96.83
2022-09-25T04:01:35.915Z,96.83
2022-09-25T04:02:35.914Z,96.83
2022-09-25T04:03:35.872Z,96.92
2022-09-25T04:04:35.867Z,96.92
2022-09-25T04:05:35.833Z,97.03
2022-09-25T04:06:35.856Z,97.03
2022-09-25T04:07:35.842Z,97.03
2022-09-25T04:08:36.525Z,97.03
2022-09-25T04:09:35.787Z,97.13
2022-09-25T04:10:36.591Z,97.13
2022-09-25T04:11:36.494Z,97.13
2022-09-25T04:12:35.852Z,97.13
2022-09-25T04:13:35.744Z,97.24
2022-09-25T04:14:35.734Z,97.24
2022-09-25T04:15:35.718Z,97.33
2022-09-25T04:16:36.578Z,97.33
2022-09-25T04:17:35.707Z,97.33
2022-09-25T04:18:35.705Z,97.33
2022-09-25T04:19:35.662Z,97.44
2022-09-25T04:20:35.670Z,97.44
2022-09-25T04:21:35.643Z,97.54
2022-09-25T04:22:36.462Z,97.54
2022-09-25T04:23:35.624Z,97.54
2022-09-25T04:24:35.853Z,97.54
2022-09-25T04:25:35.843Z,97.54
2022-09-25T04:26:35.613Z,97.54
2022-09-25T04:27:36.492Z,97.54
2022-09-25T04:28:35.663Z,97.54
2022-09-25T04:29:35.683Z,97.54
2022-09-25T04:30:35.600Z,97.54
2022-09-25T04:31:36.430Z,97.64
2022-09-25T04:32:36.273Z,97.54
2022-09-25T04:33:35.552Z,97.54
2022-09-25T04:34:36.339Z,97.64
2022-09-25T04:35:35.482Z,97.64
2022-09-25T04:36:35.763Z,97.74
2022-09-25T04:37:35.462Z,97.74
2022-09-25T04:38:36.235Z,97.74
2022-09-25T04:39:35.442Z,97.85
2022-09-25T04:40:35.486Z,97.74
2022-09-25T04:41:35.415Z,97.74
2022-09-25T04:42:35.859Z,97.74
2022-09-25T04:43:35.855Z,97.85
2022-09-25T04:44:35.411Z,97.89
2022-09-25T04:45:35.372Z,97.85
2022-09-25T04:46:35.452Z,97.85
2022-09-25T04:47:35.348Z,97.85
2022-09-25T04:48:35.341Z,97.85
2022-09-25T04:49:36.182Z,97.95
2022-09-25T04:50:35.334Z,97.95
2022-09-25T04:51:36.254Z,97.95
2022-09-25T04:52:36.141Z,97.99
2022-09-25T04:53:35.291Z,97.95
2022-09-25T04:54:36.206Z,97.89
2022-09-25T04:55:35.261Z,97.99
2022-09-25T04:56:36.013Z,97.99
2022-09-25T04:57:57.152Z,97.99
2022-09-25T04:58:36.232Z,97.99
2022-09-25T04:59:35.202Z,97.99
2022-09-25T05:00:35.212Z,97.99
2022-09-25T05:01:35.905Z,97.99
2022-09-25T05:02:36.129Z,97.99
2022-09-25T05:03:35.250Z,97.99
2022-09-25T05:04:35.162Z,98.10
2022-09-25T05:05:35.931Z,97.99
2022-09-25T05:06:35.874Z,97.95
2022-09-25T05:07:35.131Z,97.99
2022-09-25T05:08:35.890Z,97.89
2022-09-25T05:09:36.060Z,97.69
2022-09-25T05:10:35.952Z,97.69
2022-09-25T05:11:35.891Z,97.58
2022-09-25T05:12:35.787Z,97.69
2022-09-25T05:13:35.071Z,97.58
2022-09-25T05:14:35.068Z,97.58
2022-09-25T05:15:35.046Z,97.58
2022-09-25T05:16:35.915Z,97.54
2022-09-25T05:17:35.012Z,97.54
2022-09-25T05:18:35.472Z,97.54
2022-09-25T05:19:35.853Z,97.54
2022-09-25T05:20:35.762Z,97.58
2022-09-25T05:21:35.696Z,97.54
2022-09-25T05:22:35.822Z,97.54
2022-09-25T05:23:34.932Z,97.44
2022-09-25T05:24:34.943Z,97.44
2022-09-25T05:25:35.793Z,97.38
2022-09-25T05:26:34.913Z,97.24
2022-09-25T05:27:35.271Z,97.13
2022-09-25T05:28:35.762Z,97.08
2022-09-25T05:29:34.872Z,97.08
2022-09-25T05:30:35.411Z,97.13
2022-09-25T05:31:34.978Z,97.13
2022-09-25T05:32:34.862Z,97.13
2022-09-25T05:33:34.843Z,96.97
2022-09-25T05:34:35.113Z,96.87
2022-09-25T05:35:34.789Z,96.87
2022-09-25T05:36:35.311Z,96.87
2022-09-25T05:37:35.322Z,96.87
2022-09-25T05:38:35.350Z,96.87
2022-09-25T05:39:34.822Z,96.97
2022-09-25T05:40:34.809Z,96.97
2022-09-25T05:41:34.912Z,96.97
2022-09-25T05:42:34.956Z,96.97
2022-09-25T05:43:34.995Z,96.97
2022-09-25T05:44:34.710Z,96.97
2022-09-25T05:45:35.407Z,96.97
2022-09-25T05:46:34.724Z,97.08
2022-09-25T05:47:34.764Z,97.08
2022-09-25T05:48:34.779Z,96.97
2022-09-25T05:49:35.548Z,96.97
2022-09-25T05:50:35.436Z,96.87
2022-09-25T05:51:35.342Z,96.87
2022-09-25T05:52:35.505Z,96.77
2022-09-25T05:53:35.410Z,96.77
2022-09-25T05:54:35.314Z,96.77
2022-09-25T05:55:35.471Z,96.77
2022-09-25T05:56:35.371Z,96.77
2022-09-25T05:57:35.284Z,96.72
2022-09-25T05:58:34.544Z,96.72
2022-09-25T05:59:34.530Z,96.72
2022-09-25T06:00:35.254Z,96.62
2022-09-25T06:01:34.873Z,96.42
2022-09-25T06:02:34.874Z,95.95
2022-09-25T06:03:35.212Z,95.80
2022-09-25T06:04:35.141Z,95.90
2022-09-25T06:05:35.281Z,95.90
2022-09-25T06:06:35.182Z,95.90
2022-09-25T06:07:34.439Z,96.01
2022-09-25T06:08:34.411Z,96.11
2022-09-25T06:09:34.952Z,96.11
2022-09-25T06:10:34.741Z,96.11
2022-09-25T06:11:34.395Z,96.01
2022-09-25T06:12:34.992Z,96.01
2022-09-25T06:13:34.372Z,95.80
2022-09-25T06:14:35.184Z,95.50
2022-09-25T06:15:34.422Z,95.39
2022-09-25T06:16:34.543Z,95.19
2022-09-25T06:17:34.353Z,95.09
2022-09-25T06:18:34.564Z,95.19
2022-09-25T06:19:34.492Z,95.19
2022-09-25T06:20:34.641Z,95.19
2022-09-25T06:21:34.542Z,95.29
2022-09-25T06:22:34.254Z,95.29
2022-09-25T06:23:34.780Z,95.29
2022-09-25T06:24:34.820Z,95.29
2022-09-25T06:25:34.241Z,95.29
2022-09-25T06:26:34.202Z,95.39
2022-09-25T06:27:34.202Z,95.29
2022-09-25T06:28:35.122Z,95.29
2022-09-25T06:29:34.180Z,95.19
2022-09-25T06:30:34.264Z,95.09
2022-09-25T06:31:34.236Z,95.09
2022-09-25T06:32:34.153Z,95.19
2022-09-25T06:33:34.153Z,95.09
2022-09-25T06:34:35.051Z,94.78
2022-09-25T06:35:34.172Z,94.78
2022-09-25T06:36:34.132Z,94.89
2022-09-25T06:37:34.181Z,95.09
2022-09-25T06:38:34.082Z,95.19
2022-09-25T06:39:34.080Z,95.19
2022-09-25T06:40:34.101Z,95.19
2022-09-25T06:41:34.071Z,95.09
2022-09-25T06:42:34.019Z,94.89
2022-09-25T06:43:34.021Z,94.68
2022-09-25T06:44:34.884Z,94.78
2022-09-25T06:45:34.031Z,94.78
2022-09-25T06:46:34.106Z,94.78
2022-09-25T06:47:33.971Z,94.78
2022-09-25T06:48:33.955Z,94.68
2022-09-25T06:49:33.942Z,94.37
2022-09-25T06:50:34.800Z,93.96
2022-09-25T06:51:33.940Z,93.82
2022-09-25T06:52:33.909Z,93.62
2022-09-25T06:53:33.980Z,93.92
2022-09-25T06:54:34.672Z,94.12
2022-09-25T06:55:34.836Z,94.23
2022-09-25T06:56:33.863Z,94.43
2022-09-25T06:57:33.860Z,94.53
2022-09-25T06:58:33.831Z,94.18
2022-09-25T06:59:33.918Z,93.77
2022-09-25T07:00:33.821Z,93.26
2022-09-25T07:01:34.785Z,93.06
2022-09-25T07:02:33.900Z,92.65
2022-09-25T07:03:33.811Z,92.45
2022-09-25T07:04:33.916Z,92.45
2022-09-25T07:05:33.821Z,92.65
2022-09-25T07:06:33.851Z,91.94
2022-09-25T07:07:34.471Z,90.51
2022-09-25T07:08:33.814Z,91.53
2022-09-25T07:09:33.726Z,92.20
2022-09-25T07:10:33.709Z,92.41
2022-09-25T07:11:33.705Z,92.50
2022-09-25T07:12:34.484Z,92.71
2022-09-25T07:13:33.705Z,92.71
2022-09-25T07:14:33.673Z,92.30
2022-09-25T07:15:33.736Z,92.10
2022-09-25T07:16:34.459Z,91.89
2022-09-25T07:17:34.510Z,91.49
2022-09-25T07:18:33.764Z,91.18
2022-09-25T07:19:34.329Z,90.57
2022-09-25T07:20:33.581Z,90.83
2022-09-25T07:21:33.581Z,91.14
2022-09-25T07:22:33.551Z,91.03
2022-09-25T07:23:33.613Z,90.63
2022-09-25T07:24:34.351Z,90.63
2022-09-25T07:25:33.540Z,91.35
2022-09-25T07:26:33.511Z,91.75
2022-09-25T07:27:33.511Z,91.75
2022-09-25T07:28:34.234Z,91.35
2022-09-25T07:29:33.500Z,90.94
2022-09-25T07:30:33.461Z,90.83
2022-09-25T07:31:33.597Z,90.73
2022-09-25T07:32:33.449Z,90.83
2022-09-25T07:33:33.453Z,91.03
2022-09-25T07:34:33.741Z,91.35
2022-09-25T07:35:34.319Z,90.42
2022-09-25T07:36:33.556Z,90.01
2022-09-25T07:37:33.411Z,89.92
2022-09-25T07:38:33.380Z,89.92
2022-09-25T07:39:34.191Z,89.71
2022-09-25T07:40:33.457Z,89.81
2022-09-25T07:41:33.370Z,89.92
2022-09-25T07:42:33.372Z,89.97
2022-09-25T07:43:33.351Z,89.87
2022-09-25T07:44:38.372Z,89.47
2022-09-25T07:45:34.152Z,89.67
2022-09-25T07:46:34.159Z,89.77
2022-09-25T07:47:34.190Z,89.97
2022-09-25T07:48:33.306Z,90.18
2022-09-25T07:49:33.519Z,90.38
2022-09-25T07:50:34.160Z,90.38
2022-09-25T07:51:33.312Z,90.38
2022-09-25T07:52:33.301Z,89.97
2022-09-25T07:53:33.266Z,90.08
2022-09-25T07:54:33.222Z,90.38
2022-09-25T07:55:33.239Z,90.38
2022-09-25T07:56:33.239Z,90.18
2022-09-25T07:57:34.001Z,90.08
2022-09-25T07:58:33.161Z,90.18
2022-09-25T07:59:33.167Z,89.87
2022-09-25T08:00:33.154Z,89.77
2022-09-25T08:01:33.207Z,89.36
2022-09-25T08:02:33.183Z,88.96
2022-09-25T08:03:33.253Z,88.96
2022-09-25T08:04:33.089Z,88.65
2022-09-25T08:05:33.099Z,86.61
2022-09-25T08:06:33.089Z,87.23
2022-09-25T08:07:33.078Z,88.14
2022-09-25T08:08:33.050Z,88.75
2022-09-25T08:09:33.077Z,88.65
2022-09-25T08:10:33.030Z,89.06
2022-09-25T08:11:33.028Z,89.36
2022-09-25T08:12:33.011Z,89.47
2022-09-25T08:13:33.002Z,89.67
2022-09-25T08:14:32.990Z,89.63
2022-09-25T08:15:33.111Z,89.47
2022-09-25T08:16:33.713Z,89.16
2022-09-25T08:17:33.880Z,89.06
2022-09-25T08:18:32.940Z,88.75
2022-09-25T08:19:32.941Z,88.96
2022-09-25T08:20:32.921Z,88.75
2022-09-25T08:21:32.930Z,88.71
2022-09-25T08:22:32.899Z,88.40
2022-09-25T08:23:33.581Z,88.10
2022-09-25T08:24:32.871Z,88.20
2022-09-25T08:25:32.871Z,88.10
2022-09-25T08:26:33.142Z,88.20
2022-09-25T08:27:32.860Z,88.51
2022-09-25T08:28:32.829Z,88.20
2022-09-25T08:29:33.100Z,88.40
2022-09-25T08:30:32.810Z,88.10
2022-09-25T08:31:32.907Z,84.43
2022-09-25T08:32:32.791Z,84.19
2022-09-25T08:33:32.790Z,84.90
2022-09-25T08:34:41.174Z,86.02
2022-09-25T08:35:33.910Z,86.08
2022-09-25T08:36:32.750Z,86.08
2022-09-25T08:37:33.482Z,86.29
2022-09-25T08:38:32.723Z,86.80
2022-09-25T08:39:32.741Z,84.76
2022-09-25T08:40:32.769Z,85.47
2022-09-25T08:41:32.701Z,84.82
2022-09-25T08:42:32.671Z,80.96
2022-09-25T08:43:32.672Z,82.28
2022-09-25T08:44:32.650Z,84.31
2022-09-25T08:45:33.206Z,84.62
2022-09-25T08:46:32.681Z,81.77
2022-09-25T08:47:32.629Z,80.72
2022-09-25T08:48:32.601Z,82.65
2022-09-25T08:49:32.611Z,83.15
2022-09-25T08:50:32.582Z,83.15
2022-09-25T08:51:32.582Z,82.85
2022-09-25T08:52:32.549Z,83.06
2022-09-25T08:53:32.559Z,83.15
2022-09-25T08:54:32.531Z,83.06
2022-09-25T08:55:32.530Z,82.34
2022-09-25T08:56:32.623Z,82.45
2022-09-25T08:57:32.660Z,81.93
2022-09-25T08:58:32.480Z,82.75
2022-09-25T08:59:32.480Z,83.06
2022-09-25T09:00:32.461Z,82.95
2022-09-25T09:01:32.590Z,81.12
2022-09-25T09:02:32.477Z,80.62
2022-09-25T09:03:32.440Z,81.84
2022-09-25T09:04:32.410Z,82.85
2022-09-25T09:05:32.422Z,82.65
2022-09-25T09:06:32.393Z,82.34
2022-09-25T09:07:32.391Z,82.31
2022-09-25T09:08:32.372Z,82.10
2022-09-25T09:09:32.371Z,82.20
2022-09-25T09:10:32.341Z,81.49
2022-09-25T09:11:32.342Z,82.20
2022-09-25T09:12:32.324Z,81.70
2022-09-25T09:13:32.377Z,81.90
2022-09-25T09:14:33.240Z,81.79
2022-09-25T09:15:33.255Z,80.17
2022-09-25T09:16:32.350Z,79.97
2022-09-25T09:17:32.312Z,81.19
2022-09-25T09:18:32.655Z,79.56
2022-09-25T09:19:32.617Z,78.75
2022-09-25T09:20:32.431Z,79.42
2022-09-25T09:21:32.440Z,79.63
2022-09-25T09:22:34.550Z,79.22
2022-09-25T09:23:32.379Z,79.22
2022-09-25T09:24:32.343Z,78.20
2022-09-25T09:25:32.391Z,80.24
2022-09-25T09:26:32.352Z,79.32
2022-09-25T09:27:32.340Z,79.63
2022-09-25T09:28:32.191Z,80.13
2022-09-25T09:29:32.301Z,80.44
2022-09-25T09:30:32.300Z,79.93
2022-09-25T09:31:32.304Z,79.83
2022-09-25T09:32:32.250Z,80.33
2022-09-25T09:33:32.271Z,79.42
2022-09-25T09:34:53.578Z,79.63
2022-09-25T09:35:34.159Z,79.52
2022-09-25T09:36:32.211Z,79.22
2022-09-25T09:37:32.231Z,80.58
2022-09-25T09:38:32.398Z,79.77
2022-09-25T09:39:35.230Z,78.64
2022-09-25T09:40:32.174Z,78.75
2022-09-25T09:41:32.153Z,79.25
2022-09-25T09:42:32.120Z,78.64
2022-09-25T09:43:32.141Z,78.85
2022-09-25T09:44:32.100Z,78.85
2022-09-25T09:45:32.060Z,78.95
2022-09-25T09:46:32.319Z,78.55
2022-09-25T09:47:31.936Z,78.75
2022-09-25T09:48:31.921Z,79.16
2022-09-25T09:49:32.711Z,79.36
2022-09-25T09:50:31.932Z,78.75
2022-09-25T09:51:31.891Z,78.04
2022-09-25T09:52:31.864Z,78.10
2022-09-25T09:53:31.884Z,78.71
2022-09-25T09:54:31.833Z,78.41
2022-09-25T09:55:31.831Z,78.71
2022-09-25T09:56:31.793Z,77.90
2022-09-25T09:57:31.801Z,77.09
2022-09-25T09:58:32.621Z,76.75
2022-09-25T09:59:31.794Z,76.85
2022-09-25T10:00:31.762Z,77.45
2022-09-25T10:01:47.263Z,77.45
2022-09-25T10:02:32.884Z,76.85
2022-09-25T10:03:31.816Z,76.95
2022-09-25T10:04:31.704Z,76.10
2022-09-25T10:05:32.466Z,75.59
2022-09-25T10:06:31.710Z,75.29
2022-09-25T10:07:31.692Z,75.90
2022-09-25T10:08:31.661Z,75.39
2022-09-25T10:09:32.587Z,74.85
2022-09-25T10:10:31.699Z,74.74
2022-09-25T10:11:31.733Z,74.04
2022-09-25T10:12:31.612Z,73.83
2022-09-25T10:13:31.619Z,74.24
2022-09-25T10:14:31.603Z,73.90
2022-09-25T10:15:31.646Z,73.09
2022-09-25T10:16:31.677Z,73.39
2022-09-25T10:17:31.561Z,73.39
2022-09-25T10:18:32.264Z,73.36
2022-09-25T10:19:32.397Z,72.85
2022-09-25T10:20:32.031Z,72.75
2022-09-25T10:21:31.524Z,72.04
2022-09-25T10:22:31.513Z,72.31
2022-09-25T10:23:31.483Z,71.50
2022-09-25T10:24:31.523Z,71.20
2022-09-25T10:25:31.484Z,70.89
2022-09-25T10:26:31.495Z,70.56
2022-09-25T10:27:31.745Z,71.37
2022-09-25T10:28:31.451Z,71.06
2022-09-25T10:29:31.429Z,69.85
2022-09-25T10:30:31.436Z,69.71
2022-09-25T10:31:31.518Z,70.22
2022-09-25T10:32:31.431Z,70.22
2022-09-25T10:33:31.389Z,70.18
2022-09-25T10:34:31.392Z,70.18
2022-09-25T10:35:31.363Z,69.78
2022-09-25T10:36:31.368Z,68.03
2022-09-25T10:37:31.342Z,67.72
2022-09-25T10:38:31.363Z,67.12
2022-09-25T10:39:46.941Z,68.13
2022-09-25T10:40:32.373Z,67.12
2022-09-25T10:41:31.293Z,67.72
2022-09-25T10:42:31.294Z,67.60
2022-09-25T10:43:31.275Z,67.29
2022-09-25T10:44:31.272Z,65.47
2022-09-25T10:45:31.251Z,66.78
2022-09-25T10:46:31.289Z,67.80
2022-09-25T10:47:31.220Z,66.18
2022-09-25T10:48:31.255Z,63.76
2022-09-25T10:49:31.204Z,66.08
2022-09-25T10:50:31.205Z,65.98
2022-09-25T10:51:31.474Z,66.18
2022-09-25T10:52:31.185Z,66.38
2022-09-25T10:53:31.155Z,64.87
2022-09-25T10:54:31.154Z,64.97
2022-09-25T10:55:31.188Z,65.47
2022-09-25T10:56:31.163Z,65.57
2022-09-25T10:57:31.137Z,64.76
2022-09-25T10:58:31.286Z,66.08
2022-09-25T10:59:31.885Z,66.08
2022-09-25T11:00:31.104Z,65.78
2022-09-25T11:01:31.256Z,67.16
2022-09-25T11:02:31.094Z,66.25
2022-09-25T11:03:31.044Z,67.86
2022-09-25T11:04:31.054Z,67.26
2022-09-25T11:05:31.022Z,66.86
2022-09-25T11:06:31.013Z,65.84
2022-09-25T11:07:30.993Z,65.24
2022-09-25T11:08:31.033Z,64.43
2022-09-25T11:09:30.973Z,65.61
2022-09-25T11:10:31.604Z,63.29
2022-09-25T11:11:30.975Z,65.92
2022-09-25T11:12:30.953Z,65.21
2022-09-25T11:13:30.929Z,65.51
2022-09-25T11:14:30.938Z,66.19
2022-09-25T11:15:30.903Z,64.27
2022-09-25T11:16:31.829Z,64.78
2022-09-25T11:17:31.695Z,65.08
2022-09-25T11:18:30.883Z,62.35
2022-09-25T11:19:31.758Z,60.66
2022-09-25T11:20:30.905Z,62.59
2022-09-25T11:21:30.845Z,66.62
2022-09-25T11:22:31.729Z,66.79
2022-09-25T11:23:30.826Z,63.16
2022-09-25T11:24:30.835Z,64.37
2022-09-25T11:25:31.696Z,62.65
2022-09-25T11:26:30.830Z,66.19
2022-09-25T11:27:31.455Z,65.15
2022-09-25T11:28:31.227Z,63.93
2022-09-25T11:29:31.436Z,60.61
2022-09-25T11:30:31.555Z,62.02
2022-09-25T11:31:30.724Z,61.32
2022-09-25T11:32:30.744Z,61.01
2022-09-25T11:33:30.706Z,61.01
2022-09-25T11:34:31.611Z,62.02
2022-09-25T11:35:31.496Z,61.01
2022-09-25T11:36:30.686Z,61.41
2022-09-25T11:37:30.656Z,61.32
2022-09-25T11:38:31.466Z,61.52
2022-09-25T11:39:30.917Z,62.63
2022-09-25T11:40:30.705Z,62.52
2022-09-25T11:41:31.439Z,63.64
2022-09-25T11:42:31.345Z,60.61
2022-09-25T11:43:30.756Z,61.85
2022-09-25T11:44:31.405Z,64.37
2022-09-25T11:45:31.235Z,61.82
2022-09-25T11:46:30.652Z,62.43
2022-09-25T11:47:30.547Z,60.51
2022-09-25T11:48:30.677Z,61.61
2022-09-25T11:49:31.436Z,62.52
2022-09-25T11:50:31.354Z,60.71
2022-09-25T11:51:30.498Z,61.52
2022-09-25T11:52:30.508Z,59.70
2022-09-25T11:53:31.305Z,62.73
2022-09-25T11:54:34.147Z,63.13
2022-09-25T11:55:31.376Z,60.10
2022-09-25T11:56:33.031Z,61.41
2022-09-25T11:57:34.392Z,60.61
2022-09-25T11:58:30.563Z,60.71
2022-09-25T11:59:30.408Z,60.51
2022-09-25T12:00:31.148Z,60.21
2022-09-25T12:01:31.371Z,60.00
2022-09-25T12:02:31.280Z,63.03
2022-09-25T12:03:30.646Z,60.41
2022-09-25T12:04:30.367Z,58.82
2022-09-25T12:05:30.759Z,61.75
2022-09-25T12:06:30.463Z,60.44
2022-09-25T12:07:30.772Z,59.90
2022-09-25T12:08:30.777Z,60.51
2022-09-25T12:09:31.052Z,59.80
2022-09-25T12:10:30.289Z,60.44
2022-09-25T12:11:31.117Z,61.65
2022-09-25T12:12:30.316Z,60.94
2022-09-25T12:13:31.188Z,62.93
2022-09-25T12:14:30.248Z,58.72
2022-09-25T12:15:30.988Z,59.63
2022-09-25T12:16:30.940Z,59.22
2022-09-25T12:17:31.055Z,61.14
2022-09-25T12:18:34.144Z,62.05
2022-09-25T12:19:30.437Z,62.05
2022-09-25T12:20:30.198Z,61.85
2022-09-25T12:21:30.918Z,63.36
2022-09-25T12:22:30.870Z,62.05
2022-09-25T12:23:30.998Z,64.17
2022-09-25T12:24:33.188Z,64.37
2022-09-25T12:25:30.104Z,60.21
2022-09-25T12:26:30.959Z,62.12
2022-09-25T12:27:30.101Z,61.21
2022-09-25T12:28:30.790Z,63.64
2022-09-25T12:29:30.300Z,63.33
2022-09-25T12:30:30.149Z,62.32
2022-09-25T12:31:31.012Z,58.59
2022-09-25T12:32:30.043Z,58.89
2022-09-25T12:33:30.020Z,61.69
2022-09-25T12:34:30.029Z,59.07
2022-09-25T12:35:30.044Z,57.65
2022-09-25T12:36:29.987Z,63.30
2022-09-25T12:37:29.979Z,60.17
2022-09-25T12:38:29.974Z,61.39
2022-09-25T12:39:30.728Z,59.24
2022-09-25T12:40:30.012Z,58.23
2022-09-25T12:41:30.799Z,57.45
2022-09-25T12:42:30.703Z,59.17
2022-09-25T12:43:29.922Z,57.56
2022-09-25T12:44:30.000Z,56.65
2022-09-25T12:45:29.879Z,57.96
2022-09-25T12:46:30.836Z,56.35
2022-09-25T12:47:29.900Z,57.63
2022-09-25T12:48:29.858Z,58.54
2022-09-25T12:49:29.830Z,57.23
2022-09-25T12:50:30.699Z,56.12
2022-09-25T12:51:29.809Z,55.94
2022-09-25T12:52:29.810Z,58.06